Time;durP1;ratioP1;P1;durP2;ratioP2;P2;SDS_P1;SDS_P2;PMS_P1;PMS_P2;Temp;Humidity;BMP_temperature;BMP_pressure;BME280_temperature;BME280_humidity;BME280_pressure;Samples;Min_cycle;Max_cycle;Signal;HPM_P1;HPM_P2
2023/12/23 00:02:04;;;;;;;9.23;1.90;;;7.10;99.90;;;;;;7362222;32;20238;-57
2023/12/23 00:06:06;;;;;;;9.15;1.52;;;7.10;99.90;;;;;;7346662;32;20123;-57
2023/12/23 00:10:08;;;;;;;6.47;1.15;;;7.00;99.90;;;;;;7358674;32;20471;-56
2023/12/23 00:14:10;;;;;;;7.87;1.80;;;7.10;99.90;;;;;;7354171;32;20776;-56
2023/12/23 00:18:12;;;;;;;6.82;1.80;;;7.20;99.90;;;;;;7360952;32;20114;-56
2023/12/23 00:22:14;;;;;;;11.70;1.35;;;7.20;99.90;;;;;;7368121;32;20306;-55
2023/12/23 00:26:16;;;;;;;6.07;0.90;;;7.20;99.90;;;;;;7358317;32;20153;-55
2023/12/23 00:30:18;;;;;;;5.32;1.02;;;7.10;99.90;;;;;;7353732;32;20119;-55
2023/12/23 00:34:19;;;;;;;10.20;0.98;;;7.10;99.90;;;;;;7357470;32;20285;-55
2023/12/23 00:38:21;;;;;;;5.57;0.65;;;7.10;99.90;;;;;;7366597;32;20189;-55
2023/12/23 00:42:23;;;;;;;6.43;0.82;;;7.10;99.90;;;;;;7353722;32;20099;-55
2023/12/23 00:46:25;;;;;;;4.55;0.62;;;7.20;99.90;;;;;;7359633;32;20250;-55
2023/12/23 00:50:26;;;;;;;6.85;0.60;;;7.10;99.90;;;;;;7350671;32;20104;-55
2023/12/23 00:54:28;;;;;;;5.95;1.02;;;7.20;99.90;;;;;;7360531;32;20224;-56
2023/12/23 00:58:30;;;;;;;6.95;0.80;;;7.20;99.90;;;;;;7357078;32;20383;-56
2023/12/23 01:02:32;;;;;;;5.00;0.70;;;7.10;99.90;;;;;;7354267;32;20444;-56
2023/12/23 01:06:34;;;;;;;5.05;0.60;;;7.10;99.90;;;;;;7358845;32;20478;-56
2023/12/23 01:10:36;;;;;;;8.55;1.20;;;7.10;99.90;;;;;;7368143;32;20167;-56
2023/12/23 01:14:37;;;;;;;5.65;0.90;;;7.10;99.90;;;;;;7360537;32;20284;-55
2023/12/23 01:18:39;;;;;;;5.53;0.70;;;7.10;99.90;;;;;;7346119;32;20186;-56
2023/12/23 01:22:41;;;;;;;9.05;0.70;;;7.00;99.90;;;;;;7358248;32;20547;-56
2023/12/23 01:26:44;;;;;;;5.10;1.12;;;7.00;99.90;;;;;;7364592;32;20151;-56
2023/12/23 01:30:45;;;;;;;5.05;0.70;;;7.00;99.90;;;;;;7360532;32;20149;-55
2023/12/23 01:34:48;;;;;;;9.70;0.90;;;7.00;99.90;;;;;;7355702;32;20196;-55
2023/12/23 01:38:49;;;;;;;6.00;1.02;;;7.00;99.90;;;;;;7361906;32;20111;-55
2023/12/23 01:42:51;;;;;;;9.32;0.90;;;6.90;99.90;;;;;;7362438;32;20155;-55
2023/12/23 01:46:54;;;;;;;7.82;0.90;;;7.00;99.90;;;;;;7348695;32;20503;-55
2023/12/23 01:50:57;;;;;;;4.97;0.77;;;7.00;99.90;;;;;;7363540;32;20145;-55
2023/12/23 01:54:59;;;;;;;4.20;0.65;;;7.00;99.90;;;;;;7359631;32;20228;-55
2023/12/23 01:59:02;;;;;;;2.53;0.40;;;7.00;99.90;;;;;;7364260;32;20168;-55
2023/12/23 02:03:05;;;;;;;5.68;0.80;;;7.00;99.90;;;;;;7359846;32;20550;-56
2023/12/23 02:07:07;;;;;;;3.80;0.57;;;6.90;99.90;;;;;;7352160;32;20212;-54
2023/12/23 02:11:19;;;;;;;7.78;1.10;;;7.00;99.90;;;;;;7360972;32;20356;-55
2023/12/23 02:15:23;;;;;;;7.97;0.80;;;6.90;99.90;;;;;;7356770;32;20161;-55
2023/12/23 02:19:25;;;;;;;9.32;0.90;;;6.90;99.90;;;;;;7345353;32;20418;-55
2023/12/23 02:23:27;;;;;;;7.32;1.00;;;6.90;99.90;;;;;;7360374;32;20126;-55
2023/12/23 02:27:38;;;;;;;5.25;0.70;;;6.90;99.90;;;;;;7354660;32;20929;-54
2023/12/23 02:31:40;;;;;;;8.38;0.98;;;6.90;99.90;;;;;;7358600;32;20345;-55
2023/12/23 02:35:42;;;;;;;8.52;1.00;;;6.90;99.90;;;;;;7351037;32;20213;-56
2023/12/23 02:39:44;;;;;;;5.53;0.75;;;6.90;99.90;;;;;;7355328;32;20155;-55
2023/12/23 02:43:46;;;;;;;4.47;0.70;;;7.00;99.90;;;;;;7359442;32;20106;-55
2023/12/23 02:47:48;;;;;;;6.90;0.90;;;6.90;99.90;;;;;;7343700;32;20739;-55
2023/12/23 02:51:50;;;;;;;8.35;1.45;;;6.90;99.90;;;;;;7362605;32;20658;-54
2023/12/23 02:55:52;;;;;;;3.75;1.10;;;6.90;99.90;;;;;;7361134;32;20110;-55
2023/12/23 02:59:54;;;;;;;5.85;1.27;;;6.90;99.90;;;;;;7360254;32;20251;-56
2023/12/23 03:03:56;;;;;;;3.62;1.25;;;6.90;99.90;;;;;;7357205;32;20187;-56
2023/12/23 03:07:57;;;;;;;9.43;1.40;;;6.90;99.90;;;;;;7355334;32;20815;-55
2023/12/23 03:11:59;;;;;;;5.55;1.05;;;6.90;99.90;;;;;;7348224;32;20201;-56
2023/12/23 03:16:01;;;;;;;5.78;1.77;;;7.00;99.90;;;;;;7364626;32;20159;-56
2023/12/23 03:20:04;;;;;;;6.72;2.08;;;7.00;99.90;;;;;;7359492;32;20509;-55
2023/12/23 03:24:07;;;;;;;5.15;1.50;;;7.00;99.90;;;;;;7360999;32;20170;-55
2023/12/23 03:28:09;;;;;;;6.97;1.67;;;7.10;99.90;;;;;;7357931;32;20102;-56
2023/12/23 03:32:11;;;;;;;6.60;1.70;;;7.10;99.90;;;;;;7349294;32;20106;-55
2023/12/23 03:36:12;;;;;;;7.97;1.70;;;7.10;99.90;;;;;;7353487;32;20236;-55
2023/12/23 03:40:14;;;;;;;7.40;1.80;;;7.20;99.90;;;;;;7362553;32;20111;-55
2023/12/23 03:44:16;;;;;;;8.73;1.65;;;7.20;99.90;;;;;;7367951;32;20138;-56
2023/12/23 03:48:18;;;;;;;9.85;1.90;;;7.30;99.90;;;;;;7355357;32;20149;-55
2023/12/23 03:52:20;;;;;;;15.07;2.42;;;7.40;99.90;;;;;;7358163;32;20240;-55
2023/12/23 03:56:22;;;;;;;9.75;3.15;;;7.50;99.90;;;;;;7349571;32;20160;-55
2023/12/23 04:00:24;;;;;;;11.02;2.90;;;7.50;99.90;;;;;;7361981;32;20326;-55
2023/12/23 04:04:26;;;;;;;8.52;3.80;;;7.60;99.90;;;;;;7356340;32;20133;-55
2023/12/23 04:08:28;;;;;;;8.63;3.55;;;7.70;99.90;;;;;;7363617;32;20221;-55
2023/12/23 04:12:29;;;;;;;10.88;3.45;;;7.80;99.90;;;;;;7364974;32;20200;-55
2023/12/23 04:16:31;;;;;;;9.50;3.87;;;7.90;99.90;;;;;;7351481;32;20110;-55
2023/12/23 04:20:33;;;;;;;10.55;3.97;;;8.00;99.90;;;;;;7357721;32;20125;-56
2023/12/23 04:24:35;;;;;;;10.73;4.18;;;8.10;99.90;;;;;;7356068;32;20498;-55
2023/12/23 04:28:36;;;;;;;8.27;4.57;;;8.00;99.90;;;;;;7344536;32;20573;-55
2023/12/23 04:32:38;;;;;;;11.93;6.12;;;8.00;99.90;;;;;;7355801;32;20111;-54
2023/12/23 04:36:40;;;;;;;13.32;6.28;;;8.00;99.90;;;;;;7341027;32;20323;-55
2023/12/23 04:40:42;;;;;;;15.60;7.07;;;8.00;99.90;;;;;;7353134;32;20164;-55
2023/12/23 04:44:44;;;;;;;16.33;6.50;;;8.00;99.90;;;;;;7356986;32;20099;-55
2023/12/23 04:48:46;;;;;;;14.00;7.25;;;8.00;99.90;;;;;;7361414;32;20208;-55
2023/12/23 04:52:48;;;;;;;13.32;6.65;;;7.90;99.90;;;;;;7347226;32;20490;-54
2023/12/23 04:56:50;;;;;;;17.25;6.45;;;7.90;99.90;;;;;;7361368;32;20534;-55
2023/12/23 05:00:52;;;;;;;17.08;6.07;;;7.90;99.90;;;;;;7345976;32;20256;-55
2023/12/23 05:04:53;;;;;;;13.20;6.65;;;7.90;99.90;;;;;;7332532;32;20251;-54
2023/12/23 05:08:55;;;;;;;9.32;5.78;;;8.00;99.90;;;;;;7350003;32;20095;-55
2023/12/23 05:12:57;;;;;;;15.60;6.50;;;8.00;99.90;;;;;;7358451;32;20489;-55
2023/12/23 05:16:59;;;;;;;11.95;6.47;;;7.90;99.90;;;;;;7354607;32;20118;-55
2023/12/23 05:21:01;;;;;;;19.42;6.72;;;7.90;99.90;;;;;;7354484;32;20095;-55
2023/12/23 05:25:04;;;;;;;13.27;6.57;;;7.90;99.90;;;;;;7350701;32;20142;-55
2023/12/23 05:29:06;;;;;;;17.42;6.45;;;8.00;99.90;;;;;;7354397;32;20545;-56
2023/12/23 05:33:07;;;;;;;9.35;5.60;;;7.90;99.90;;;;;;7353218;32;20524;-55
2023/12/23 05:37:09;;;;;;;7.93;5.68;;;8.00;99.90;;;;;;7345431;32;20228;-55
2023/12/23 05:41:11;;;;;;;12.82;5.82;;;8.00;99.90;;;;;;7345739;32;20194;-55
2023/12/23 05:45:14;;;;;;;16.73;6.70;;;8.00;99.90;;;;;;7354274;32;20178;-55
2023/12/23 05:49:16;;;;;;;9.75;5.25;;;8.00;99.90;;;;;;7355449;32;20671;-54
2023/12/23 05:53:20;;;;;;;13.05;5.05;;;8.00;99.90;;;;;;7356119;32;20212;-55
2023/12/23 05:57:22;;;;;;;13.48;6.28;;;8.00;99.90;;;;;;7361936;32;20471;-55
2023/12/23 06:01:24;;;;;;;8.73;5.55;;;8.00;99.90;;;;;;7358919;32;20107;-55
2023/12/23 06:05:25;;;;;;;14.75;5.50;;;8.00;99.90;;;;;;7348062;32;20417;-55
2023/12/23 06:09:27;;;;;;;13.90;5.05;;;8.00;99.90;;;;;;7360003;32;20137;-55
2023/12/23 06:13:29;;;;;;;11.70;5.03;;;8.00;99.90;;;;;;7356631;32;20176;-55
2023/12/23 06:17:31;;;;;;;8.43;5.30;;;8.00;99.90;;;;;;7359348;32;20147;-55
2023/12/23 06:21:33;;;;;;;12.50;4.97;;;8.00;99.90;;;;;;7359962;32;20154;-54
2023/12/23 06:25:35;;;;;;;10.55;5.37;;;8.10;99.90;;;;;;7366019;32;20111;-55
2023/12/23 06:29:36;;;;;;;9.73;4.85;;;8.10;99.90;;;;;;7364624;32;20135;-56
2023/12/23 06:33:38;;;;;;;10.13;4.25;;;8.10;99.90;;;;;;7355095;32;20146;-56
2023/12/23 06:37:40;;;;;;;13.60;5.12;;;8.10;99.90;;;;;;7355693;32;20304;-56
2023/12/23 06:41:42;;;;;;;12.37;4.85;;;8.20;99.90;;;;;;7362419;32;20501;-56
2023/12/23 06:45:48;;;;;;;12.43;4.70;;;8.20;99.90;;;;;;7361514;32;20493;-57
2023/12/23 06:49:50;;;;;;;13.62;4.45;;;8.20;99.90;;;;;;7363989;32;20174;-56
2023/12/23 06:53:52;;;;;;;12.43;4.20;;;8.20;99.90;;;;;;7360369;32;20225;-56
2023/12/23 06:57:54;;;;;;;12.45;3.85;;;8.20;99.90;;;;;;7366475;32;20175;-57
2023/12/23 07:01:56;;;;;;;10.35;3.92;;;8.20;99.90;;;;;;7358320;32;20111;-58
2023/12/23 07:05:58;;;;;;;13.75;4.10;;;8.20;99.90;;;;;;7367298;32;20207;-56
2023/12/23 07:10:00;;;;;;;11.15;3.95;;;8.30;99.90;;;;;;7365357;32;20685;-55
2023/12/23 07:14:08;;;;;;;10.20;4.00;;;8.20;99.90;;;;;;7359487;32;20217;-56
2023/12/23 07:18:10;;;;;;;12.37;3.90;;;8.20;99.90;;;;;;7361475;32;20879;-56
2023/12/23 07:22:12;;;;;;;12.35;4.00;;;8.30;99.90;;;;;;7362794;32;20321;-55
2023/12/23 07:26:14;;;;;;;10.57;4.10;;;8.30;99.90;;;;;;7357004;32;20148;-55
2023/12/23 07:30:16;;;;;;;11.18;3.95;;;8.20;99.90;;;;;;7363154;32;20225;-56
2023/12/23 07:34:18;;;;;;;9.23;3.75;;;8.20;99.90;;;;;;7362930;32;20122;-56
2023/12/23 07:38:19;;;;;;;11.48;3.95;;;8.20;99.90;;;;;;7362176;32;21346;-57
2023/12/23 07:42:21;;;;;;;10.10;4.10;;;8.20;99.90;;;;;;7360823;32;20473;-56
2023/12/23 07:46:23;;;;;;;8.27;4.12;;;8.20;99.90;;;;;;7361857;32;20794;-56
2023/12/23 07:50:26;;;;;;;11.18;3.90;;;8.30;99.90;;;;;;7363794;32;20244;-59
2023/12/23 07:54:28;;;;;;;10.63;4.20;;;8.20;99.90;;;;;;7354600;32;20111;-57
2023/12/23 07:58:30;;;;;;;9.10;4.47;;;8.20;99.90;;;;;;7354704;32;20351;-57
2023/12/23 08:02:31;;;;;;;10.45;4.10;;;8.20;99.90;;;;;;7361832;32;20523;-58
2023/12/23 08:06:33;;;;;;;14.52;4.65;;;8.10;99.90;;;;;;7356341;32;20218;-58
2023/12/23 08:10:35;;;;;;;13.35;4.80;;;8.10;99.90;;;;;;7358450;32;20187;-59
2023/12/23 08:14:37;;;;;;;10.15;5.40;;;8.10;99.90;;;;;;7362919;32;20158;-58
2023/12/23 08:18:40;;;;;;;13.80;4.60;;;8.10;99.90;;;;;;7351370;32;20118;-57
2023/12/23 08:22:42;;;;;;;10.18;4.53;;;8.20;99.90;;;;;;7364844;32;20110;-58
2023/12/23 08:26:44;;;;;;;15.13;4.82;;;8.20;99.90;;;;;;7358637;32;20099;-58
2023/12/23 08:30:46;;;;;;;11.65;4.87;;;8.20;99.90;;;;;;7363990;32;20148;-58
2023/12/23 08:34:47;;;;;;;12.68;4.53;;;8.20;99.90;;;;;;7362876;32;20099;-57
2023/12/23 08:38:50;;;;;;;11.95;4.90;;;8.20;99.90;;;;;;7358532;32;20248;-56
2023/12/23 08:42:51;;;;;;;10.48;3.95;;;8.30;99.90;;;;;;7361855;32;20310;-58
2023/12/23 08:46:53;;;;;;;12.82;4.00;;;8.30;99.90;;;;;;7358787;32;20096;-57
2023/12/23 08:50:55;;;;;;;10.50;3.90;;;8.30;99.90;;;;;;7355545;32;20125;-57
2023/12/23 08:54:57;;;;;;;10.15;3.72;;;8.30;99.90;;;;;;7356877;32;20094;-57
2023/12/23 08:58:59;;;;;;;12.18;3.42;;;8.30;99.90;;;;;;7361494;32;20119;-57
2023/12/23 09:03:01;;;;;;;10.85;3.12;;;8.40;99.90;;;;;;7361242;32;20794;-58
2023/12/23 09:07:03;;;;;;;11.68;3.08;;;8.40;99.90;;;;;;7358014;32;20175;-56
2023/12/23 09:11:05;;;;;;;8.63;2.95;;;8.40;99.90;;;;;;7358483;32;20155;-59
2023/12/23 09:15:07;;;;;;;11.00;2.95;;;8.40;99.90;;;;;;7354430;32;20170;-56
2023/12/23 09:19:09;;;;;;;9.57;2.12;;;8.50;99.90;;;;;;7361231;32;20126;-57
2023/12/23 09:23:11;;;;;;;10.77;2.30;;;8.50;99.90;;;;;;7358899;32;20273;-59
2023/12/23 09:27:13;;;;;;;6.43;1.70;;;8.60;99.90;;;;;;7358043;32;20146;-57
2023/12/23 09:31:15;;;;;;;9.77;1.87;;;8.70;99.90;;;;;;7361048;32;20576;-57
2023/12/23 09:35:16;;;;;;;8.98;1.62;;;8.70;99.90;;;;;;7353026;32;20199;-57
2023/12/23 09:39:18;;;;;;;12.55;1.73;;;8.70;99.90;;;;;;7357882;32;20226;-58
2023/12/23 09:43:21;;;;;;;6.78;1.55;;;8.70;99.90;;;;;;7354288;32;20137;-57
2023/12/23 09:47:24;;;;;;;8.55;1.60;;;8.70;99.90;;;;;;7351747;32;20187;-58
2023/12/23 09:51:27;;;;;;;8.63;1.60;;;8.80;99.90;;;;;;7355972;32;20124;-58
2023/12/23 09:55:30;;;;;;;10.90;1.73;;;8.90;99.90;;;;;;7356525;32;20170;-57
2023/12/23 09:59:32;;;;;;;9.23;1.60;;;8.90;99.90;;;;;;7354558;32;20123;-57
2023/12/23 10:03:34;;;;;;;8.95;1.77;;;8.90;99.90;;;;;;7358073;32;20661;-57
2023/12/23 10:07:37;;;;;;;6.60;1.40;;;9.00;99.90;;;;;;7360842;32;20098;-58
2023/12/23 10:11:39;;;;;;;12.48;1.58;;;8.90;99.90;;;;;;7357651;32;20751;-58
2023/12/23 10:15:41;;;;;;;7.47;1.37;;;8.90;99.90;;;;;;7357573;32;20193;-58
2023/12/23 10:19:43;;;;;;;9.13;1.90;;;8.90;99.90;;;;;;7361408;32;20139;-57
2023/12/23 10:23:45;;;;;;;9.13;1.83;;;8.90;99.90;;;;;;7362947;32;20138;-59
2023/12/23 10:27:53;;;;;;;5.03;1.30;;;8.80;99.90;;;;;;7363875;32;20183;-58
2023/12/23 10:31:57;;;;;;;5.93;1.42;;;8.70;99.90;;;;;;7363106;32;20156;-58
2023/12/23 10:35:59;;;;;;;8.88;1.67;;;8.60;99.90;;;;;;7359224;32;20103;-58
2023/12/23 10:40:13;;;;;;;5.47;1.40;;;8.50;99.90;;;;;;7359325;32;20304;-57
2023/12/23 10:44:16;;;;;;;8.63;1.83;;;8.50;99.90;;;;;;7360958;32;20498;-58
2023/12/23 10:48:20;;;;;;;6.93;1.92;;;8.70;99.90;;;;;;7358383;32;20166;-58
2023/12/23 10:52:22;;;;;;;9.73;1.98;;;8.70;99.90;;;;;;7362566;32;20217;-58
2023/12/23 10:56:26;;;;;;;7.72;2.30;;;8.60;99.90;;;;;;7364918;32;20141;-58
2023/12/23 11:00:28;;;;;;;11.07;2.50;;;8.50;99.90;;;;;;7361094;32;20131;-59
2023/12/23 11:04:30;;;;;;;11.35;2.97;;;8.50;99.90;;;;;;7359220;32;20213;-58
2023/12/23 11:08:33;;;;;;;8.82;3.58;;;8.50;99.90;;;;;;7365039;32;20095;-58
2023/12/23 11:12:38;;;;;;;8.38;3.90;;;8.50;99.90;;;;;;7361369;32;20103;-58
2023/12/23 11:16:40;;;;;;;10.05;4.05;;;8.50;99.90;;;;;;7362782;32;20279;-58
2023/12/23 11:20:41;;;;;;;10.00;4.25;;;8.40;99.90;;;;;;7364420;32;20357;-58
2023/12/23 11:24:43;;;;;;;10.95;3.92;;;8.50;99.90;;;;;;7363878;32;20116;-58
2023/12/23 11:28:48;;;;;;;8.73;4.30;;;8.50;99.90;;;;;;7360007;32;20176;-58
2023/12/23 11:32:50;;;;;;;12.18;4.78;;;8.50;99.90;;;;;;7364120;32;20134;-58
2023/12/23 11:36:53;;;;;;;10.65;4.20;;;8.50;99.90;;;;;;7364613;32;20654;-58
2023/12/23 11:40:55;;;;;;;10.80;4.20;;;8.60;99.90;;;;;;7353062;32;20111;-57
2023/12/23 11:44:57;;;;;;;11.27;3.90;;;8.60;99.90;;;;;;7362865;32;20882;-58
2023/12/23 11:49:00;;;;;;;9.88;3.22;;;8.60;99.90;;;;;;7360133;32;20222;-58
2023/12/23 11:53:02;;;;;;;7.87;2.60;;;8.70;99.90;;;;;;7359389;32;20232;-58
2023/12/23 11:57:04;;;;;;;9.68;2.97;;;8.70;99.90;;;;;;7366101;32;20111;-58
2023/12/23 12:01:06;;;;;;;9.65;2.55;;;8.70;99.90;;;;;;7360099;32;20153;-59
2023/12/23 12:05:08;;;;;;;11.63;2.67;;;8.80;99.90;;;;;;7357912;32;20585;-58
2023/12/23 12:09:10;;;;;;;11.35;2.90;;;8.80;99.90;;;;;;7357538;32;20106;-56
2023/12/23 12:13:12;;;;;;;11.50;2.55;;;8.90;99.90;;;;;;7368753;32;20238;-56
2023/12/23 12:17:13;;;;;;;12.00;2.62;;;8.90;99.90;;;;;;7361510;32;20174;-58
2023/12/23 12:21:15;;;;;;;10.77;2.03;;;8.90;99.90;;;;;;7361709;32;20125;-57
2023/12/23 12:25:17;;;;;;;7.28;1.60;;;9.00;99.90;;;;;;7360082;32;20584;-57
2023/12/23 12:29:20;;;;;;;6.55;1.65;;;9.10;99.90;;;;;;7359370;32;20732;-58
2023/12/23 12:33:22;;;;;;;6.65;1.73;;;9.10;99.90;;;;;;7360449;32;20541;-58
2023/12/23 12:37:26;;;;;;;8.90;1.87;;;9.20;99.90;;;;;;7361034;32;21596;-59
2023/12/23 12:41:29;;;;;;;6.72;1.30;;;9.10;99.90;;;;;;7355173;32;20102;-58
2023/12/23 12:45:34;;;;;;;7.22;1.40;;;9.20;99.90;;;;;;7362279;32;20274;-57
2023/12/23 12:49:44;;;;;;;5.82;1.15;;;9.30;99.90;;;;;;7360171;32;20129;-58
2023/12/23 12:54:07;;;;;;;6.65;1.20;;;9.30;99.90;;;;;;7361515;32;20286;-57
2023/12/23 12:58:09;;;;;;;5.87;1.15;;;9.30;99.90;;;;;;7365041;32;20190;-58
2023/12/23 13:02:12;;;;;;;4.80;1.17;;;9.30;99.90;;;;;;7359460;32;20884;-59
2023/12/23 13:06:14;;;;;;;9.23;1.55;;;9.40;99.90;;;;;;7356111;32;20154;-57
2023/12/23 13:10:17;;;;;;;7.75;1.87;;;9.40;99.90;;;;;;7355400;32;20102;-55
2023/12/23 13:14:19;;;;;;;7.75;1.75;;;9.50;99.90;;;;;;7360746;32;20218;-56
2023/12/23 13:18:21;;;;;;;9.18;1.10;;;9.50;99.90;;;;;;7362812;32;20095;-57
2023/12/23 13:22:22;;;;;;;3.95;1.10;;;9.50;99.90;;;;;;7354254;32;20190;-57
2023/12/23 13:26:25;;;;;;;4.82;0.98;;;9.60;99.90;;;;;;7356602;32;20214;-56
2023/12/23 13:30:27;;;;;;;4.65;0.80;;;9.60;99.90;;;;;;7345858;32;20142;-57
2023/12/23 13:34:29;;;;;;;4.60;1.05;;;9.50;99.90;;;;;;7364315;32;20266;-57
2023/12/23 13:38:30;;;;;;;4.03;0.90;;;9.70;99.90;;;;;;7358783;32;20184;-57
2023/12/23 13:42:32;;;;;;;4.68;0.77;;;9.80;99.90;;;;;;7352806;32;20240;-57
2023/12/23 13:46:35;;;;;;;2.05;0.60;;;9.80;99.90;;;;;;7353840;32;20122;-57
2023/12/23 13:50:36;;;;;;;4.55;0.85;;;9.90;99.90;;;;;;7350911;32;20573;-57
2023/12/23 13:54:38;;;;;;;3.85;0.70;;;9.80;99.90;;;;;;7355748;32;20395;-56
2023/12/23 13:58:40;;;;;;;2.30;0.60;;;9.80;99.90;;;;;;7357969;32;20151;-57
2023/12/23 14:02:41;;;;;;;3.20;0.88;;;9.90;99.90;;;;;;7352912;32;20107;-56
2023/12/23 14:06:43;;;;;;;6.35;0.77;;;9.80;99.90;;;;;;7353185;32;20111;-58
2023/12/23 14:10:45;;;;;;;8.25;1.55;;;9.80;99.90;;;;;;7357925;32;20202;-58
2023/12/23 14:14:50;;;;;;;4.65;0.80;;;9.80;99.90;;;;;;7356770;32;20353;-58
2023/12/23 14:18:52;;;;;;;5.70;0.80;;;9.80;99.90;;;;;;7359679;32;20901;-58
2023/12/23 14:22:54;;;;;;;3.90;0.62;;;9.80;99.90;;;;;;7362478;32;20107;-57
2023/12/23 14:26:56;;;;;;;6.72;0.73;;;9.80;99.90;;;;;;7360454;32;20111;-58
2023/12/23 14:30:57;;;;;;;2.25;0.60;;;9.80;99.90;;;;;;7360932;32;20235;-58
2023/12/23 14:34:59;;;;;;;5.07;0.60;;;9.80;99.90;;;;;;7355559;32;20107;-57
2023/12/23 14:39:02;;;;;;;3.95;0.73;;;9.70;99.90;;;;;;7367168;32;20118;-56
2023/12/23 14:43:04;;;;;;;4.03;0.70;;;9.80;99.90;;;;;;7360103;32;20111;-57
2023/12/23 14:47:06;;;;;;;5.90;0.90;;;9.70;99.90;;;;;;7363913;32;20703;-58
2023/12/23 14:51:07;;;;;;;5.90;1.23;;;9.70;99.90;;;;;;7361599;32;20138;-58
2023/12/23 14:55:09;;;;;;;4.20;0.90;;;9.60;99.90;;;;;;7357180;32;20099;-56
2023/12/23 14:59:12;;;;;;;3.30;0.80;;;9.60;99.90;;;;;;7363311;32;20134;-56
2023/12/23 15:03:14;;;;;;;4.78;0.95;;;9.50;99.90;;;;;;7361975;32;20217;-57
2023/12/23 15:07:16;;;;;;;3.97;0.90;;;9.50;99.90;;;;;;7360080;32;20165;-57
2023/12/23 15:11:18;;;;;;;5.55;1.12;;;9.50;99.90;;;;;;7364212;32;20223;-57
2023/12/23 15:15:20;;;;;;;3.62;0.98;;;9.50;99.90;;;;;;7361475;32;20099;-57
2023/12/23 15:19:22;;;;;;;2.30;0.85;;;9.50;99.90;;;;;;7359583;32;20175;-57
2023/12/23 15:23:24;;;;;;;4.85;0.85;;;9.40;99.90;;;;;;7362866;32;20106;-55
2023/12/23 15:27:27;;;;;;;6.18;1.10;;;9.40;99.90;;;;;;7357566;32;20522;-58
2023/12/23 15:31:29;;;;;;;5.80;1.10;;;9.40;99.90;;;;;;7362177;32;20640;-57
2023/12/23 15:35:30;;;;;;;3.05;0.88;;;9.30;99.90;;;;;;7355705;32;20520;-57
2023/12/23 15:39:32;;;;;;;5.28;1.10;;;9.30;99.90;;;;;;7359665;32;20144;-57
2023/12/23 15:43:34;;;;;;;5.53;1.42;;;9.20;99.90;;;;;;7355802;32;20188;-66
2023/12/23 15:47:36;;;;;;;3.70;1.37;;;9.20;99.90;;;;;;7361715;32;20126;-66
2023/12/23 15:51:38;;;;;;;6.85;1.30;;;9.50;99.90;;;;;;7357138;32;20268;-56
2023/12/23 15:55:40;;;;;;;9.15;1.50;;;9.50;99.90;;;;;;7357483;32;20174;-56
2023/12/23 15:59:43;;;;;;;5.37;1.15;;;9.20;99.90;;;;;;7358145;32;20308;-56
2023/12/23 16:03:44;;;;;;;5.03;1.83;;;9.20;99.90;;;;;;7366349;32;20123;-55
2023/12/23 16:07:46;;;;;;;5.35;1.30;;;9.10;99.90;;;;;;7350198;32;20632;-57
2023/12/23 16:11:48;;;;;;;7.28;1.40;;;9.10;99.90;;;;;;7359515;32;20166;-56
2023/12/23 16:15:50;;;;;;;3.53;1.30;;;9.10;99.90;;;;;;7365830;32;20217;-56
2023/12/23 16:19:52;;;;;;;6.37;1.65;;;9.10;99.90;;;;;;7353920;32;20406;-56
2023/12/23 16:23:54;;;;;;;6.32;1.58;;;9.10;99.90;;;;;;7358996;32;20132;-56
2023/12/23 16:27:55;;;;;;;9.25;2.00;;;9.10;99.90;;;;;;7363090;32;20155;-56
2023/12/23 16:31:57;;;;;;;4.32;2.03;;;9.10;99.90;;;;;;7357191;32;20095;-55
2023/12/23 16:36:03;;;;;;;7.15;2.37;;;9.00;99.90;;;;;;7354590;32;20124;-56
2023/12/23 16:40:06;;;;;;;7.65;2.10;;;9.00;99.90;;;;;;7362435;32;20782;-56
2023/12/23 16:44:07;;;;;;;9.25;2.78;;;9.00;99.90;;;;;;7362222;32;20130;-55
2023/12/23 16:48:09;;;;;;;16.33;3.42;;;9.00;99.90;;;;;;7356981;32;20111;-56
2023/12/23 16:52:12;;;;;;;5.72;3.45;;;9.00;99.90;;;;;;7363803;32;20769;-56
2023/12/23 16:56:13;;;;;;;8.73;3.65;;;9.00;99.90;;;;;;7359492;32;20343;-55
2023/12/23 17:00:16;;;;;;;7.25;3.87;;;9.00;99.90;;;;;;7356882;32;20111;-56
2023/12/23 17:04:18;;;;;;;8.52;3.15;;;9.00;99.90;;;;;;7356067;32;20103;-56
2023/12/23 17:08:20;;;;;;;5.95;3.30;;;9.00;99.90;;;;;;7354470;32;20544;-56
2023/12/23 17:12:21;;;;;;;8.40;3.40;;;9.00;99.90;;;;;;7356740;32;20218;-56
2023/12/23 17:16:23;;;;;;;8.60;3.92;;;9.00;99.90;;;;;;7358240;32;20209;-56
2023/12/23 17:20:25;;;;;;;7.95;4.00;;;9.00;99.90;;;;;;7359343;32;20131;-57
2023/12/23 17:24:27;;;;;;;7.87;3.90;;;8.90;99.90;;;;;;7353642;32;20107;-56
2023/12/23 17:28:28;;;;;;;7.43;3.70;;;8.90;99.90;;;;;;7359808;32;20182;-56
2023/12/23 17:32:30;;;;;;;8.40;3.60;;;9.00;99.90;;;;;;7355864;32;20516;-55
2023/12/23 17:36:32;;;;;;;5.40;3.00;;;9.00;99.90;;;;;;7366907;32;20242;-55
2023/12/23 17:40:35;;;;;;;5.87;3.22;;;8.90;99.90;;;;;;7358699;32;20176;-56
2023/12/23 17:44:37;;;;;;;6.20;3.12;;;9.00;99.90;;;;;;7351890;32;20164;-57
2023/12/23 17:48:39;;;;;;;9.25;3.95;;;9.00;99.90;;;;;;7364337;32;20641;-56
2023/12/23 17:52:40;;;;;;;7.53;3.12;;;9.00;99.90;;;;;;7367739;32;20148;-56
2023/12/23 17:56:44;;;;;;;5.55;2.85;;;9.00;99.90;;;;;;7363743;32;20224;-57
2023/12/23 18:00:46;;;;;;;8.82;2.70;;;9.10;99.90;;;;;;7364320;32;20785;-56
2023/12/23 18:04:48;;;;;;;5.75;2.42;;;9.10;99.90;;;;;;7371151;32;20112;-56
2023/12/23 18:08:50;;;;;;;7.85;2.75;;;9.10;99.90;;;;;;7362891;32;20215;-56
2023/12/23 18:12:52;;;;;;;4.65;2.42;;;9.20;99.90;;;;;;7362998;32;20253;-55
2023/12/23 18:16:54;;;;;;;5.70;2.28;;;9.20;99.90;;;;;;7370247;32;20102;-57
2023/12/23 18:20:56;;;;;;;11.68;2.47;;;9.30;99.90;;;;;;7366684;32;20099;-57
2023/12/23 18:24:58;;;;;;;4.53;2.03;;;9.30;99.90;;;;;;7357544;32;20151;-56
2023/12/23 18:29:00;;;;;;;5.90;2.92;;;9.40;99.90;;;;;;7366719;32;20641;-57
2023/12/23 18:33:03;;;;;;;5.35;2.30;;;9.30;99.90;;;;;;7367942;32;20099;-56
2023/12/23 18:37:05;;;;;;;4.75;2.50;;;9.40;99.90;;;;;;7365449;32;20233;-57
2023/12/23 18:41:07;;;;;;;5.75;2.95;;;9.30;99.90;;;;;;7367353;32;20676;-55
2023/12/23 18:45:10;;;;;;;9.90;3.05;;;9.40;99.90;;;;;;7369393;32;20218;-55
2023/12/23 18:49:12;;;;;;;7.03;2.60;;;9.40;99.90;;;;;;7357101;32;20115;-63
2023/12/23 18:53:14;;;;;;;6.55;2.70;;;9.60;99.90;;;;;;7357799;32;20236;-62
2023/12/23 18:57:16;;;;;;;5.80;2.40;;;9.90;99.90;;;;;;7359960;32;20475;-55
2023/12/23 19:01:18;;;;;;;4.97;2.20;;;9.80;99.90;;;;;;7366426;32;20230;-56
2023/12/23 19:05:20;;;;;;;4.72;2.30;;;9.70;99.90;;;;;;7361817;32;20309;-56
2023/12/23 19:09:22;;;;;;;4.95;2.20;;;9.70;99.90;;;;;;7364824;32;20206;-56
2023/12/23 19:13:24;;;;;;;5.70;2.00;;;9.60;99.90;;;;;;7365630;32;20174;-55
2023/12/23 19:17:26;;;;;;;5.78;1.98;;;9.70;99.90;;;;;;7362379;32;20115;-56
2023/12/23 19:21:27;;;;;;;4.25;1.85;;;9.70;99.90;;;;;;7363141;32;20126;-55
2023/12/23 19:25:29;;;;;;;4.97;2.10;;;9.70;99.90;;;;;;7357186;32;20243;-55
2023/12/23 19:29:32;;;;;;;4.95;1.58;;;9.70;99.90;;;;;;7363997;32;20229;-55
2023/12/23 19:33:34;;;;;;;4.80;1.73;;;9.80;99.90;;;;;;7362220;32;20202;-54
2023/12/23 19:37:37;;;;;;;4.78;1.62;;;9.80;99.90;;;;;;7364639;32;20628;-54
2023/12/23 19:41:38;;;;;;;4.37;1.15;;;9.80;99.90;;;;;;7365226;32;20174;-55
2023/12/23 19:45:42;;;;;;;2.85;1.20;;;9.80;99.90;;;;;;7357643;32;20103;-55
2023/12/23 19:49:45;;;;;;;3.40;1.05;;;9.90;99.90;;;;;;7362692;32;20246;-55
2023/12/23 19:53:46;;;;;;;5.78;1.20;;;9.90;99.90;;;;;;7362496;32;20609;-55
2023/12/23 19:57:48;;;;;;;3.87;1.30;;;9.80;99.90;;;;;;7363991;32;20121;-56
2023/12/23 20:01:50;;;;;;;11.80;2.55;;;9.90;99.90;;;;;;7359006;32;20522;-55
2023/12/23 20:05:51;;;;;;;7.72;2.87;;;9.90;99.90;;;;;;7362949;32;20179;-55
2023/12/23 20:09:53;;;;;;;5.53;1.45;;;9.80;99.90;;;;;;7366574;32;20883;-55
2023/12/23 20:13:55;;;;;;;4.03;1.10;;;9.90;99.90;;;;;;7360380;32;20233;-54
2023/12/23 20:17:59;;;;;;;3.00;1.00;;;9.80;99.90;;;;;;7364135;32;20248;-55
2023/12/23 20:22:01;;;;;;;7.03;1.70;;;9.80;99.90;;;;;;7361263;32;21805;-56
2023/12/23 20:26:03;;;;;;;5.45;1.30;;;9.80;99.90;;;;;;7359380;32;20278;-56
2023/12/23 20:30:06;;;;;;;1.40;0.95;;;9.80;99.90;;;;;;7363230;32;20487;-56
2023/12/23 20:34:09;;;;;;;2.90;1.10;;;9.90;99.90;;;;;;7363478;32;20218;-56
2023/12/23 20:38:11;;;;;;;3.22;0.93;;;9.80;99.90;;;;;;7367221;32;20115;-55
2023/12/23 20:42:12;;;;;;;2.65;0.90;;;9.80;99.90;;;;;;7362135;32;20119;-57
2023/12/23 20:46:14;;;;;;;4.85;1.30;;;9.90;99.90;;;;;;7359589;32;20158;-56
2023/12/23 20:50:16;;;;;;;4.05;1.30;;;9.80;99.90;;;;;;7364577;32;20115;-55
2023/12/23 20:54:18;;;;;;;3.15;1.20;;;9.80;99.90;;;;;;7356985;32;20103;-63
2023/12/23 20:58:19;;;;;;;12.20;1.23;;;10.10;99.90;;;;;;7359254;32;20103;-64
2023/12/23 21:02:21;;;;;;;5.03;1.10;;;10.20;99.90;;;;;;7353739;32;20130;-63
2023/12/23 21:06:23;;;;;;;6.25;1.00;;;10.40;99.90;;;;;;7357683;32;20274;-62
2023/12/23 21:10:25;;;;;;;3.58;1.10;;;10.30;99.90;;;;;;7354165;32;20273;-55